Time;durP1;ratioP1;P1;durP2;ratioP2;P2;SDS_P1;SDS_P2;PMS_P1;PMS_P2;Temp;Humidity;BMP_temperature;BMP_pressure;BME280_temperature;BME280_humidity;BME280_pressure;Samples;Min_cycle;Max_cycle;Signal;HPM_P1;HPM_P2
2021/09/28 00:00:09;;;;;;;5.55;1.80;;;19.70;88.10;;;;;;5084257;28;20021;-71
2021/09/28 00:02:34;;;;;;;4.32;1.80;;;19.70;88.10;;;;;;5071074;28;20029;-70
2021/09/28 00:05:00;;;;;;;6.38;1.90;;;19.70;88.20;;;;;;5071299;28;20027;-70
2021/09/28 00:07:26;;;;;;;4.40;1.70;;;19.70;88.20;;;;;;5080881;28;20521;-70
2021/09/28 00:09:51;;;;;;;4.60;2.20;;;19.70;88.10;;;;;;5072202;28;20032;-70
2021/09/28 00:12:18;;;;;;;4.05;1.80;;;19.70;88.20;;;;;;5068444;28;20478;-70
2021/09/28 00:14:43;;;;;;;4.65;1.90;;;19.70;88.10;;;;;;5073738;28;20198;-70
2021/09/28 00:17:09;;;;;;;4.65;1.98;;;19.70;88.20;;;;;;5073141;28;20107;-70
2021/09/28 00:19:35;;;;;;;4.25;1.92;;;19.70;88.10;;;;;;5075020;28;20024;-70
2021/09/28 00:22:00;;;;;;;5.68;2.10;;;19.70;88.10;;;;;;5075021;28;20021;-70
2021/09/28 00:24:26;;;;;;;5.10;2.20;;;19.70;88.20;;;;;;5074583;28;20509;-70
2021/09/28 00:26:51;;;;;;;3.97;1.92;;;19.60;88.20;;;;;;5073594;28;20020;-70
2021/09/28 00:29:17;;;;;;;4.80;2.00;;;19.60;88.20;;;;;;5074939;28;20095;-71
2021/09/28 00:31:42;;;;;;;4.88;1.95;;;19.60;88.30;;;;;;5074737;28;20538;-70
2021/09/28 00:34:08;;;;;;;4.20;2.22;;;19.60;88.20;;;;;;5074665;28;20028;-70
2021/09/28 00:36:33;;;;;;;6.15;2.50;;;19.60;88.20;;;;;;5074448;28;20037;-70
2021/09/28 00:38:59;;;;;;;5.07;2.50;;;19.60;88.10;;;;;;5074484;28;20020;-71
2021/09/28 00:41:24;;;;;;;4.45;2.00;;;19.60;88.10;;;;;;5074574;28;20029;-71
2021/09/28 00:43:53;;;;;;;6.22;2.50;;;19.60;88.10;;;;;;5074540;28;20141;-70
2021/09/28 00:46:19;;;;;;;6.50;2.40;;;19.60;88.20;;;;;;5074292;28;20024;-70
2021/09/28 00:48:45;;;;;;;6.75;2.58;;;19.60;88.10;;;;;;5074438;28;20036;-70
2021/09/28 00:51:12;;;;;;;5.78;2.60;;;19.60;88.00;;;;;;5073137;28;20568;-70
2021/09/28 00:53:40;;;;;;;5.90;2.25;;;19.60;88.60;;;;;;5074149;28;20051;-71
2021/09/28 00:56:10;;;;;;;5.60;2.60;;;19.60;88.10;;;;;;5074148;28;20078;-70
2021/09/28 00:58:38;;;;;;;7.47;3.00;;;19.60;88.10;;;;;;5074315;28;20024;-70
2021/09/28 01:01:04;;;;;;;5.88;2.55;;;19.50;88.10;;;;;;5073026;28;20493;-71
2021/09/28 01:03:34;;;;;;;6.68;2.72;;;19.50;88.10;;;;;;5074170;28;20062;-71
2021/09/28 01:06:00;;;;;;;5.53;2.70;;;19.50;88.20;;;;;;5074033;28;20111;-71
2021/09/28 01:08:26;;;;;;;5.90;2.60;;;19.50;88.10;;;;;;5073887;28;20470;-70
2021/09/28 01:10:53;;;;;;;5.20;2.70;;;19.50;88.30;;;;;;5073528;28;20032;-70
2021/09/28 01:13:19;;;;;;;5.78;2.58;;;19.50;88.30;;;;;;5072722;28;20050;-70
2021/09/28 01:16:03;;;;;;;6.25;2.60;;;19.50;88.30;;;;;;5073993;28;20060;-71
2021/09/28 01:18:34;;;;;;;6.95;3.00;;;19.50;88.20;;;;;;5073764;28;20469;-71
2021/09/28 01:21:01;;;;;;;7.05;2.90;;;19.50;88.30;;;;;;5072733;28;20032;-70
2021/09/28 01:23:27;;;;;;;5.97;3.15;;;19.50;88.10;;;;;;5072032;28;20067;-70
2021/09/28 01:25:53;;;;;;;5.38;2.75;;;19.50;88.20;;;;;;5073866;28;20056;-70
2021/09/28 01:28:19;;;;;;;6.60;3.13;;;19.50;88.20;;;;;;5073485;28;20031;-71
2021/09/28 01:30:45;;;;;;;6.80;3.10;;;19.50;88.30;;;;;;5073583;28;20421;-71
2021/09/28 01:33:12;;;;;;;7.95;3.58;;;19.50;88.30;;;;;;5073688;28;20078;-70
2021/09/28 01:35:39;;;;;;;8.23;3.65;;;19.50;88.30;;;;;;5072368;28;20024;-70
2021/09/28 01:38:05;;;;;;;6.32;3.17;;;19.50;88.30;;;;;;5073272;28;20090;-70
2021/09/28 01:40:31;;;;;;;6.22;2.90;;;19.50;88.20;;;;;;5073595;28;20035;-71
2021/09/28 01:43:05;;;;;;;6.85;3.10;;;19.50;88.20;;;;;;5073356;28;20060;-70
2021/09/28 01:45:31;;;;;;;7.00;3.33;;;19.40;88.20;;;;;;5072305;28;20025;-70
2021/09/28 01:47:56;;;;;;;7.28;3.17;;;19.50;88.30;;;;;;5073108;28;20042;-70
2021/09/28 01:50:22;;;;;;;5.88;3.28;;;19.40;88.80;;;;;;5073259;28;20033;-71
2021/09/28 01:52:47;;;;;;;7.20;3.65;;;19.40;88.30;;;;;;5073411;28;20078;-71
2021/09/28 01:55:13;;;;;;;6.55;3.40;;;19.40;88.20;;;;;;5073261;28;20099;-70
2021/09/28 01:57:38;;;;;;;6.07;3.00;;;19.40;88.20;;;;;;5072764;28;20020;-71
2021/09/28 02:00:04;;;;;;;7.13;3.60;;;19.40;88.30;;;;;;5073166;28;20016;-70
2021/09/28 02:02:30;;;;;;;6.18;3.28;;;19.40;88.30;;;;;;5073018;28;20032;-70
2021/09/28 02:04:55;;;;;;;6.25;3.40;;;19.40;88.30;;;;;;5072928;28;20024;-70
2021/09/28 02:07:21;;;;;;;7.10;3.40;;;19.40;88.40;;;;;;5071346;28;20032;-70
2021/09/28 02:09:46;;;;;;;8.30;3.75;;;19.40;88.40;;;;;;5070994;28;20090;-70
2021/09/28 02:12:12;;;;;;;6.50;3.40;;;19.40;88.40;;;;;;5071595;28;20390;-70
2021/09/28 02:14:37;;;;;;;7.32;3.17;;;19.40;88.30;;;;;;5072764;28;20024;-71
2021/09/28 02:17:03;;;;;;;8.27;3.67;;;19.40;88.40;;;;;;5072568;28;20099;-71
2021/09/28 02:19:29;;;;;;;6.22;3.47;;;19.40;88.20;;;;;;5072839;28;20690;-70
2021/09/28 02:21:54;;;;;;;7.70;3.38;;;19.40;88.20;;;;;;5072647;28;20158;-71
2021/09/28 02:24:21;;;;;;;7.18;3.47;;;19.40;88.30;;;;;;5071108;28;20032;-71
2021/09/28 02:26:46;;;;;;;6.55;3.40;;;19.40;88.30;;;;;;5071074;28;20016;-71
2021/09/28 02:29:12;;;;;;;7.32;4.07;;;19.40;88.40;;;;;;5071244;28;20511;-70
2021/09/28 02:31:38;;;;;;;6.95;3.60;;;19.40;88.40;;;;;;5071223;28;20085;-70
2021/09/28 02:34:06;;;;;;;6.75;3.80;;;19.40;88.30;;;;;;5072470;28;20524;-71
2021/09/28 02:36:36;;;;;;;7.80;3.58;;;19.40;88.30;;;;;;5071448;28;20023;-71
2021/09/28 02:39:04;;;;;;;8.77;3.70;;;19.40;88.30;;;;;;5071068;28;20447;-70
2021/09/28 02:41:30;;;;;;;7.68;4.20;;;19.30;88.20;;;;;;5071086;28;20086;-70
2021/09/28 02:43:56;;;;;;;6.35;3.45;;;19.30;88.20;;;;;;5070966;28;20473;-70
2021/09/28 02:46:21;;;;;;;8.57;3.88;;;19.30;88.20;;;;;;5071960;28;20035;-70
2021/09/28 02:48:47;;;;;;;8.00;4.15;;;19.30;88.20;;;;;;5072157;28;20508;-70
2021/09/28 02:51:12;;;;;;;9.55;4.70;;;19.30;88.40;;;;;;5081810;28;20032;-69
2021/09/28 02:53:38;;;;;;;8.05;4.35;;;19.30;88.40;;;;;;5082151;28;20103;-70
2021/09/28 02:56:03;;;;;;;8.40;4.22;;;19.30;88.40;;;;;;5072107;28;20405;-70
2021/09/28 02:58:29;;;;;;;6.75;4.07;;;19.30;88.30;;;;;;5071773;28;20107;-69
2021/09/28 03:00:54;;;;;;;7.03;4.32;;;19.30;88.40;;;;;;5071989;28;20116;-69
2021/09/28 03:03:20;;;;;;;12.45;4.55;;;19.30;88.40;;;;;;5071901;28;20028;-69
2021/09/28 03:05:45;;;;;;;7.50;4.55;;;19.30;88.40;;;;;;5071857;28;20029;-70
2021/09/28 03:08:11;;;;;;;7.32;4.45;;;19.30;88.40;;;;;;5071640;28;20115;-70
2021/09/28 03:10:37;;;;;;;10.63;5.05;;;19.30;88.50;;;;;;5071248;28;20021;-70
2021/09/28 03:13:03;;;;;;;7.93;4.80;;;19.30;88.50;;;;;;5070544;28;20028;-70
2021/09/28 03:15:29;;;;;;;8.93;5.03;;;19.30;88.40;;;;;;5070552;28;20017;-69
2021/09/28 03:17:54;;;;;;;8.98;5.07;;;19.30;88.40;;;;;;5070259;28;20024;-70
2021/09/28 03:20:20;;;;;;;8.05;4.82;;;19.30;88.30;;;;;;5070361;28;20099;-70
2021/09/28 03:22:45;;;;;;;9.50;5.55;;;19.30;88.30;;;;;;5070287;28;20115;-70
2021/09/28 03:25:11;;;;;;;8.95;5.20;;;19.30;88.30;;;;;;5164057;23;20498;-69
2021/09/28 03:27:36;;;;;;;9.23;5.88;;;19.30;88.40;;;;;;5012678;28;20017;-69
2021/09/28 03:30:04;;;;;;;10.52;5.65;;;19.30;88.30;;;;;;5031289;28;20451;-68
2021/09/28 03:32:30;;;;;;;8.27;5.72;;;19.30;88.30;;;;;;5031588;28;20105;-69
2021/09/28 03:34:56;;;;;;;10.10;5.78;;;19.30;88.20;;;;;;5013635;28;20441;-69
2021/09/28 03:37:21;;;;;;;11.65;6.47;;;19.30;88.20;;;;;;5013515;28;20470;-69
2021/09/28 03:39:47;;;;;;;9.70;6.13;;;19.30;88.20;;;;;;5031596;28;20036;-68
2021/09/28 03:42:12;;;;;;;9.88;6.03;;;19.30;88.20;;;;;;5013995;28;20379;-68
2021/09/28 03:44:38;;;;;;;10.73;6.78;;;19.20;88.10;;;;;;5031541;28;20053;-70
2021/09/28 03:47:04;;;;;;;11.18;7.15;;;19.30;88.10;;;;;;5014778;28;20041;-68
2021/09/28 03:49:29;;;;;;;10.18;6.80;;;19.20;87.90;;;;;;5017730;28;20406;-69
2021/09/28 03:51:55;;;;;;;10.18;6.90;;;19.30;88.00;;;;;;5017793;28;20398;-68
2021/09/28 03:54:20;;;;;;;11.30;7.22;;;19.20;87.80;;;;;;5017817;28;20390;-69
2021/09/28 03:56:46;;;;;;;12.30;7.35;;;19.20;87.80;;;;;;5035228;28;20160;-68
2021/09/28 03:59:11;;;;;;;12.77;8.23;;;19.20;87.80;;;;;;5017763;28;20440;-68
2021/09/28 04:01:37;;;;;;;10.98;7.90;;;19.30;87.80;;;;;;5035456;28;20034;-68
2021/09/28 04:04:02;;;;;;;12.93;7.88;;;19.20;87.70;;;;;;5017568;28;20548;-69
2021/09/28 04:06:28;;;;;;;12.90;8.45;;;19.20;87.80;;;;;;5017204;28;20030;-69
2021/09/28 04:08:54;;;;;;;12.00;8.32;;;19.20;87.70;;;;;;5035265;28;20030;-69
2021/09/28 04:11:20;;;;;;;12.07;8.00;;;19.30;87.80;;;;;;5016835;28;20021;-68
2021/09/28 04:13:47;;;;;;;12.07;7.75;;;19.20;87.70;;;;;;5035222;28;20030;-70
2021/09/28 04:16:15;;;;;;;12.80;8.35;;;19.20;87.70;;;;;;5034816;28;20023;-68
2021/09/28 04:18:41;;;;;;;13.93;8.50;;;19.20;87.60;;;;;;5035167;28;20434;-69
2021/09/28 04:21:07;;;;;;;12.45;8.70;;;19.20;87.70;;;;;;5017405;28;20025;-68
2021/09/28 04:23:33;;;;;;;13.60;8.82;;;19.20;87.60;;;;;;5017297;28;20034;-68
2021/09/28 04:25:58;;;;;;;13.60;8.88;;;19.20;87.60;;;;;;5034785;28;20091;-68
2021/09/28 04:28:24;;;;;;;13.35;8.48;;;19.20;87.60;;;;;;5034745;28;20398;-69
2021/09/28 04:30:49;;;;;;;12.40;9.25;;;19.20;87.60;;;;;;5034745;28;20107;-68
2021/09/28 04:33:15;;;;;;;12.65;8.57;;;19.20;87.60;;;;;;5034864;28;20022;-68
2021/09/28 04:35:40;;;;;;;13.38;9.65;;;19.20;87.50;;;;;;5017033;28;20453;-69
2021/09/28 04:38:06;;;;;;;13.15;9.55;;;19.20;88.00;;;;;;5034539;28;20018;-68
2021/09/28 04:40:32;;;;;;;13.00;9.20;;;19.20;87.50;;;;;;5034751;28;20029;-68
2021/09/28 04:42:57;;;;;;;13.02;8.93;;;19.20;87.50;;;;;;5034639;28;20057;-68
2021/09/28 04:45:23;;;;;;;13.63;9.60;;;19.20;87.40;;;;;;5016843;28;20109;-68
2021/09/28 04:47:48;;;;;;;13.60;9.48;;;19.20;87.50;;;;;;5034262;28;20657;-68
2021/09/28 04:50:14;;;;;;;12.75;9.27;;;19.20;87.50;;;;;;5034604;28;20037;-69
2021/09/28 04:52:39;;;;;;;13.27;9.10;;;19.20;87.40;;;;;;5034563;28;20124;-71
2021/09/28 04:55:05;;;;;;;13.27;9.10;;;19.20;87.40;;;;;;5029609;28;20036;-68
2021/09/28 04:57:31;;;;;;;15.80;10.38;;;19.20;87.40;;;;;;5027283;28;20026;-68
2021/09/28 04:59:57;;;;;;;16.17;10.93;;;19.20;85.80;;;;;;5025066;28;20371;-68
2021/09/28 05:02:22;;;;;;;15.68;9.63;;;19.10;84.70;;;;;;5017483;28;20171;-68
2021/09/28 05:04:48;;;;;;;14.13;10.77;;;19.20;86.00;;;;;;5010041;28;20512;-70
2021/09/28 05:07:13;;;;;;;13.15;9.13;;;19.20;86.00;;;;;;5009656;28;20044;-69
2021/09/28 05:09:39;;;;;;;14.00;9.85;;;19.10;85.60;;;;;;5010086;28;20021;-69
2021/09/28 05:12:05;;;;;;;32.10;12.63;;;19.10;85.20;;;;;;5027280;28;20475;-66
2021/09/28 05:14:31;;;;;;;18.65;10.45;;;19.20;85.00;;;;;;5026147;28;20163;-68
2021/09/28 05:16:57;;;;;;;31.15;11.65;;;19.20;84.80;;;;;;5008289;28;20116;-72
2021/09/28 05:19:23;;;;;;;24.58;12.68;;;19.20;86.00;;;;;;5026463;28;20025;-70
2021/09/28 05:21:49;;;;;;;43.17;14.20;;;19.30;85.80;;;;;;5006807;28;20048;-67
2021/09/28 05:24:14;;;;;;;32.58;13.18;;;19.30;85.00;;;;;;5027347;28;20061;-65
2021/09/28 05:26:40;;;;;;;25.00;11.60;;;19.30;85.20;;;;;;5026794;28;20056;-70
2021/09/28 05:29:05;;;;;;;32.25;12.80;;;19.30;85.20;;;;;;5026884;28;20133;-68
2021/09/28 05:31:31;;;;;;;29.98;11.85;;;19.30;85.40;;;;;;5027041;28;20029;-70
2021/09/28 05:33:56;;;;;;;23.42;11.00;;;19.30;85.60;;;;;;5009843;28;20027;-68
2021/09/28 05:36:22;;;;;;;23.92;11.30;;;19.30;85.80;;;;;;5027381;28;20029;-68
2021/09/28 05:38:48;;;;;;;24.90;11.75;;;19.30;85.90;;;;;;5027364;28;20154;-69
2021/09/28 05:41:14;;;;;;;19.17;10.43;;;19.20;85.40;;;;;;5027092;28;20025;-67
2021/09/28 05:43:40;;;;;;;19.75;10.55;;;19.20;85.90;;;;;;5009650;28;20517;-69
2021/09/28 05:46:06;;;;;;;18.35;10.40;;;19.20;85.20;;;;;;5027081;28;20044;-69
2021/09/28 05:48:31;;;;;;;21.23;10.25;;;19.30;85.30;;;;;;5027426;28;20465;-66
2021/09/28 05:50:57;;;;;;;18.23;10.45;;;19.30;85.20;;;;;;5008458;28;20112;-66
2021/09/28 05:53:23;;;;;;;17.50;10.63;;;19.30;84.20;;;;;;5015349;28;20021;-67
2021/09/28 05:55:48;;;;;;;19.13;10.02;;;19.30;84.80;;;;;;5016772;28;20375;-67
2021/09/28 05:58:14;;;;;;;21.10;10.30;;;19.30;84.10;;;;;;5017792;28;20068;-68
2021/09/28 06:00:40;;;;;;;22.45;10.20;;;19.40;84.20;;;;;;5016901;28;20037;-65
2021/09/28 06:03:06;;;;;;;20.23;10.02;;;19.40;83.60;;;;;;5012841;28;20033;-67
2021/09/28 06:05:32;;;;;;;21.08;10.90;;;19.50;83.50;;;;;;5013006;28;20030;-65
2021/09/28 06:07:58;;;;;;;21.27;9.88;;;19.50;82.90;;;;;;5013042;28;20033;-66
2021/09/28 06:10:23;;;;;;;19.35;10.00;;;19.60;82.50;;;;;;5012261;28;20038;-66
2021/09/28 06:12:49;;;;;;;14.75;8.77;;;19.60;82.50;;;;;;5013236;28;20026;-65
2021/09/28 06:15:15;;;;;;;12.90;9.27;;;19.60;81.80;;;;;;4995513;28;20092;-66
2021/09/28 06:17:40;;;;;;;14.88;8.80;;;19.70;81.10;;;;;;5012784;28;20116;-66
2021/09/28 06:20:06;;;;;;;19.45;10.43;;;19.80;80.40;;;;;;4995549;28;20022;-67
2021/09/28 06:22:32;;;;;;;16.75;8.98;;;19.80;80.00;;;;;;5013007;28;20034;-66
2021/09/28 06:24:58;;;;;;;14.77;8.82;;;19.80;79.50;;;;;;5012811;28;20096;-66
2021/09/28 06:27:24;;;;;;;14.05;8.95;;;19.90;79.40;;;;;;5012809;28;20117;-65
2021/09/28 06:29:51;;;;;;;13.55;9.00;;;20.00;78.20;;;;;;5013087;28;20230;-65
2021/09/28 06:32:18;;;;;;;16.98;8.70;;;20.10;78.00;;;;;;5012649;28;20068;-66
2021/09/28 06:34:45;;;;;;;12.93;8.77;;;20.10;77.00;;;;;;5012784;28;20026;-66
2021/09/28 06:37:11;;;;;;;10.98;8.05;;;20.20;77.50;;;;;;5012557;28;20487;-66
2021/09/28 06:39:36;;;;;;;15.25;8.48;;;20.20;76.10;;;;;;5012892;28;20049;-65
2021/09/28 06:42:02;;;;;;;11.98;8.57;;;20.30;76.30;;;;;;5012189;28;20476;-66
2021/09/28 06:44:28;;;;;;;16.33;8.70;;;20.40;75.80;;;;;;4994865;28;20030;-66
2021/09/28 06:46:55;;;;;;;12.90;7.95;;;20.40;74.90;;;;;;5012526;28;20040;-65
2021/09/28 06:49:20;;;;;;;13.40;8.60;;;20.40;73.70;;;;;;5012773;28;20029;-66
2021/09/28 06:51:46;;;;;;;14.95;8.57;;;20.50;73.70;;;;;;5012609;28;20025;-66
2021/09/28 06:54:12;;;;;;;14.13;8.10;;;20.50;73.20;;;;;;5012440;28;20022;-66
2021/09/28 06:56:37;;;;;;;12.48;7.30;;;20.50;72.60;;;;;;5012224;28;20033;-67
2021/09/28 06:59:08;;;;;;;15.70;7.60;;;20.60;72.70;;;;;;4994744;28;20026;-66
2021/09/28 07:01:35;;;;;;;14.07;7.25;;;20.60;72.10;;;;;;5012551;28;20057;-66
2021/09/28 07:04:00;;;;;;;11.52;7.03;;;20.70;72.10;;;;;;4994709;28;20029;-66
2021/09/28 07:06:27;;;;;;;13.85;7.45;;;20.70;71.90;;;;;;5011954;28;20030;-66
2021/09/28 07:08:53;;;;;;;14.00;7.03;;;20.70;71.70;;;;;;5012287;28;20057;-66
2021/09/28 07:11:19;;;;;;;9.90;6.32;;;20.80;71.40;;;;;;5012094;28;20065;-66
2021/09/28 07:13:46;;;;;;;10.90;6.00;;;20.80;71.50;;;;;;5012254;28;20022;-65
2021/09/28 07:16:11;;;;;;;11.60;6.32;;;20.80;71.40;;;;;;5011993;28;20097;-66
2021/09/28 07:18:37;;;;;;;10.02;5.72;;;20.90;71.30;;;;;;4994567;28;20022;-66
2021/09/28 07:21:02;;;;;;;10.88;5.78;;;20.90;71.20;;;;;;5012149;28;20021;-66
2021/09/28 07:23:28;;;;;;;10.15;5.85;;;20.90;70.60;;;;;;5011848;28;20022;-66
2021/09/28 07:25:53;;;;;;;10.07;5.50;;;21.00;70.40;;;;;;5011839;28;20384;-67
2021/09/28 07:28:19;;;;;;;11.98;5.75;;;21.00;70.80;;;;;;5011814;28;20041;-66
2021/09/28 07:30:45;;;;;;;9.02;4.97;;;21.10;70.20;;;;;;5012012;28;20590;-66
2021/09/28 07:33:11;;;;;;;11.43;5.50;;;21.10;69.80;;;;;;5012102;28;20056;-66
2021/09/28 07:35:37;;;;;;;9.52;5.30;;;21.10;69.70;;;;;;5011950;28;20105;-67
2021/09/28 07:38:03;;;;;;;11.02;5.53;;;21.20;70.00;;;;;;4994104;28;20026;-65
2021/09/28 07:40:28;;;;;;;9.73;5.07;;;21.20;69.50;;;;;;5011318;28;20026;-67
2021/09/28 07:42:54;;;;;;;9.40;5.15;;;21.20;69.40;;;;;;5011932;28;20025;-66
2021/09/28 07:45:19;;;;;;;12.07;5.03;;;21.20;69.80;;;;;;5011756;28;20097;-66
2021/09/28 07:47:45;;;;;;;11.85;5.40;;;21.30;69.20;;;;;;5011590;28;20025;-66
2021/09/28 07:50:12;;;;;;;10.23;5.07;;;21.30;68.90;;;;;;4994230;28;20542;-66
2021/09/28 07:52:38;;;;;;;9.23;4.93;;;21.30;69.00;;;;;;4994097;28;20448;-66
2021/09/28 07:55:04;;;;;;;9.40;4.30;;;21.30;68.80;;;;;;5011782;28;20053;-66
2021/09/28 07:57:29;;;;;;;10.68;4.80;;;21.40;68.70;;;;;;4993945;28;20022;-67
2021/09/28 07:59:55;;;;;;;10.27;4.85;;;21.40;68.70;;;;;;4994133;28;20037;-68
2021/09/28 08:02:22;;;;;;;9.32;4.82;;;21.50;68.50;;;;;;5011872;28;20401;-66
2021/09/28 08:04:47;;;;;;;10.68;4.45;;;21.50;68.40;;;;;;5011645;28;20030;-66
2021/09/28 08:07:13;;;;;;;8.43;4.32;;;21.50;68.30;;;;;;5011291;28;20105;-65
2021/09/28 08:09:40;;;;;;;10.23;4.90;;;21.50;68.00;;;;;;5011718;28;20476;-66
2021/09/28 08:12:07;;;;;;;8.90;3.95;;;21.50;67.90;;;;;;5011580;28;20026;-66
2021/09/28 08:14:33;;;;;;;10.00;4.50;;;21.50;67.80;;;;;;5011531;28;20018;-66
2021/09/28 08:16:58;;;;;;;8.40;4.40;;;21.60;67.80;;;;;;5011330;28;20029;-67
2021/09/28 08:19:24;;;;;;;7.60;4.03;;;21.60;68.20;;;;;;4993975;28;20032;-68
2021/09/28 08:21:51;;;;;;;9.48;4.60;;;21.60;67.60;;;;;;5011463;28;20423;-66
2021/09/28 08:24:17;;;;;;;10.15;4.38;;;21.60;67.50;;;;;;5011449;28;20030;-66
2021/09/28 08:29:27;;;;;;;10.23;4.40;;;21.70;66.60;;;;;;5011761;28;20502;-67
2021/09/28 08:31:53;;;;;;;9.00;4.38;;;21.70;67.10;;;;;;4993854;28;20029;-66
2021/09/28 08:34:20;;;;;;;8.85;4.22;;;21.60;67.30;;;;;;4995121;28;20018;-67
2021/09/28 08:36:47;;;;;;;10.32;4.53;;;21.70;67.30;;;;;;5015134;28;20022;-67
2021/09/28 08:39:15;;;;;;;9.25;4.45;;;21.70;66.90;;;;;;5015055;28;20479;-67
2021/09/28 08:41:46;;;;;;;10.85;4.47;;;21.70;66.70;;;;;;5014508;28;20159;-66
2021/09/28 08:44:13;;;;;;;8.10;4.28;;;21.80;66.60;;;;;;5014860;28;20028;-68
2021/09/28 08:46:39;;;;;;;7.50;4.03;;;21.90;66.50;;;;;;5014832;28;20106;-67
2021/09/28 08:49:04;;;;;;;8.00;3.80;;;22.00;66.20;;;;;;5014878;28;20034;-67
2021/09/28 08:51:32;;;;;;;7.05;3.92;;;22.10;66.20;;;;;;5014991;28;20105;-66
2021/09/28 08:53:58;;;;;;;7.72;4.00;;;22.10;65.70;;;;;;5014815;28;20029;-66
2021/09/28 08:56:24;;;;;;;8.00;4.05;;;22.20;66.30;;;;;;4996818;28;20113;-67
2021/09/28 08:59:00;;;;;;;8.77;4.10;;;22.10;66.10;;;;;;4996900;28;20084;-68
2021/09/28 09:01:30;;;;;;;8.90;4.18;;;22.20;66.20;;;;;;5014603;28;20022;-67
2021/09/28 09:04:11;;;;;;;8.10;3.70;;;22.10;66.00;;;;;;5014601;28;20495;-66
2021/09/28 09:06:38;;;;;;;8.77;4.32;;;22.10;66.60;;;;;;5014326;28;20479;-66
2021/09/28 09:09:03;;;;;;;8.70;4.53;;;22.20;66.30;;;;;;4996938;28;20034;-67
2021/09/28 09:11:38;;;;;;;9.68;3.70;;;22.20;66.20;;;;;;5014166;28;20395;-67
2021/09/28 09:14:24;;;;;;;9.30;4.45;;;22.30;66.40;;;;;;5014437;28;20475;-66
2021/09/28 09:16:56;;;;;;;8.00;4.10;;;22.30;65.80;;;;;;5014027;28;20032;-66
2021/09/28 09:19:26;;;;;;;8.43;3.85;;;22.40;65.60;;;;;;5014410;28;20029;-66
2021/09/28 09:22:00;;;;;;;8.73;4.38;;;22.40;66.00;;;;;;5014144;28;20036;-67
2021/09/28 09:24:45;;;;;;;8.60;3.85;;;22.30;66.00;;;;;;4996820;28;20026;-65
2021/09/28 09:27:37;;;;;;;8.30;4.03;;;22.30;65.80;;;;;;5014139;28;20037;-67
2021/09/28 09:30:10;;;;;;;7.90;4.07;;;22.50;66.10;;;;;;5010985;28;20041;-66
2021/09/28 09:32:49;;;;;;;8.73;4.25;;;22.50;65.60;;;;;;4996406;28;20030;-68
2021/09/28 09:35:34;;;;;;;8.35;4.20;;;22.50;65.80;;;;;;5013907;28;20025;-67
2021/09/28 09:38:12;;;;;;;7.78;4.32;;;22.50;65.60;;;;;;5013677;28;20022;-66
2021/09/28 09:40:46;;;;;;;8.20;4.00;;;22.40;65.90;;;;;;5013761;28;20368;-67
2021/09/28 09:43:14;;;;;;;7.90;4.20;;;22.40;65.70;;;;;;5013922;28;20025;-66
2021/09/28 09:45:39;;;;;;;8.45;4.05;;;22.50;65.80;;;;;;5013973;28;20368;-67
2021/09/28 09:48:28;;;;;;;10.32;4.13;;;22.50;65.90;;;;;;4995910;28;20025;-66
2021/09/28 09:51:06;;;;;;;9.33;4.47;;;22.30;66.00;;;;;;4996098;28;20026;-66
2021/09/28 09:53:51;;;;;;;7.88;4.15;;;22.30;66.40;;;;;;5013660;28;20026;-67
2021/09/28 09:56:18;;;;;;;8.95;4.28;;;22.30;66.10;;;;;;5013225;28;20030;-67
2021/09/28 09:58:44;;;;;;;9.60;4.78;;;22.40;65.70;;;;;;5013558;28;20097;-67
2021/09/28 10:01:09;;;;;;;7.15;3.88;;;22.50;65.50;;;;;;5013519;28;20061;-69
2021/09/28 10:03:38;;;;;;;11.15;4.05;;;22.50;65.90;;;;;;4995720;28;20037;-67
2021/09/28 10:06:05;;;;;;;7.78;4.03;;;22.50;65.90;;;;;;4995702;28;20052;-69
2021/09/28 10:08:32;;;;;;;10.55;4.32;;;22.50;65.60;;;;;;5013357;28;20026;-67
2021/09/28 10:10:58;;;;;;;9.57;4.15;;;22.50;65.90;;;;;;5013213;28;20022;-66
2021/09/28 10:13:56;;;;;;;7.40;3.80;;;22.50;65.50;;;;;;4995762;28;20026;-68
2021/09/28 10:16:42;;;;;;;9.27;4.57;;;22.30;66.20;;;;;;4995223;28;20022;-68
2021/09/28 10:19:27;;;;;;;7.55;3.95;;;22.20;66.30;;;;;;5013226;28;20097;-66
2021/09/28 10:21:53;;;;;;;8.98;4.07;;;22.00;67.00;;;;;;4995554;28;20054;-67
2021/09/28 10:24:32;;;;;;;8.25;4.03;;;21.90;67.90;;;;;;5012873;28;20030;-66
2021/09/28 10:27:00;;;;;;;8.50;4.13;;;21.70;68.40;;;;;;4995076;28;20030;-67
2021/09/28 10:29:41;;;;;;;8.40;4.43;;;21.90;67.60;;;;;;5013008;28;20025;-66
2021/09/28 10:32:24;;;;;;;7.65;4.10;;;22.00;66.70;;;;;;5012917;28;20175;-67
2021/09/28 10:35:06;;;;;;;9.55;4.50;;;22.00;67.30;;;;;;4995153;28;20522;-67
2021/09/28 10:37:48;;;;;;;9.07;3.90;;;21.90;66.80;;;;;;5012523;28;20557;-67
2021/09/28 10:40:13;;;;;;;9.68;4.05;;;21.90;67.90;;;;;;4994528;28;20029;-68
2021/09/28 10:42:56;;;;;;;10.73;4.22;;;22.00;67.50;;;;;;5012772;28;20388;-66
2021/09/28 10:45:41;;;;;;;9.07;4.07;;;21.90;67.80;;;;;;4995065;28;20084;-67
2021/09/28 10:48:26;;;;;;;8.32;3.95;;;21.70;68.40;;;;;;4994631;28;20441;-66
2021/09/28 10:51:20;;;;;;;7.28;3.72;;;21.60;68.80;;;;;;5012623;28;20479;-66
2021/09/28 10:53:47;;;;;;;9.13;3.95;;;21.60;69.00;;;;;;5012509;28;20030;-67
2021/09/28 10:56:15;;;;;;;7.53;3.60;;;21.50;69.30;;;;;;4994075;28;20028;-66
2021/09/28 10:59:02;;;;;;;6.32;3.85;;;21.50;69.80;;;;;;5012398;28;20109;-69
2021/09/28 11:01:29;;;;;;;10.20;4.28;;;21.60;69.50;;;;;;5012492;28;20030;-66
2021/09/28 11:03:56;;;;;;;8.88;3.55;;;21.60;69.70;;;;;;5012411;28;20034;-67
2021/09/28 11:06:45;;;;;;;7.53;3.38;;;21.60;69.80;;;;;;4994353;28;20395;-66
2021/09/28 11:09:16;;;;;;;7.47;3.55;;;21.50;69.40;;;;;;5012311;28;20025;-67
2021/09/28 11:11:43;;;;;;;8.38;3.72;;;21.40;69.90;;;;;;5012639;28;20065;-67
2021/09/28 11:14:10;;;;;;;9.20;3.50;;;21.40;70.00;;;;;;5012294;28;20483;-65
2021/09/28 11:16:50;;;;;;;7.93;3.47;;;21.30;70.20;;;;;;5011875;28;20029;-66
2021/09/28 11:19:16;;;;;;;6.73;3.37;;;21.30;70.20;;;;;;4994694;28;20022;-66
2021/09/28 11:21:44;;;;;;;9.30;3.50;;;21.50;69.80;;;;;;5012123;28;20029;-67
2021/09/28 11:24:12;;;;;;;8.32;3.58;;;21.60;68.70;;;;;;5012067;28;20041;-69
2021/09/28 11:26:44;;;;;;;7.00;3.25;;;21.60;68.70;;;;;;5011756;28;20065;-66
2021/09/28 11:29:12;;;;;;;8.35;3.20;;;21.60;68.40;;;;;;4994453;28;20535;-68
2021/09/28 11:31:43;;;;;;;6.22;2.85;;;21.50;68.80;;;;;;5012042;28;20085;-66
2021/09/28 11:34:10;;;;;;;6.72;3.00;;;21.60;69.00;;;;;;5011993;28;20096;-67
2021/09/28 11:36:38;;;;;;;8.05;3.22;;;21.60;69.10;;;;;;4993887;28;20581;-66
2021/09/28 11:39:06;;;;;;;7.25;2.90;;;21.50;69.20;;;;;;5011992;28;20030;-66
2021/09/28 11:41:36;;;;;;;6.78;3.00;;;21.40;69.80;;;;;;4993841;28;20077;-66
2021/09/28 11:44:03;;;;;;;8.00;2.80;;;21.30;69.90;;;;;;5011986;28;20033;-67
2021/09/28 11:46:31;;;;;;;7.07;2.70;;;21.30;70.00;;;;;;4993810;28;20045;-66
2021/09/28 11:49:00;;;;;;;6.20;2.78;;;21.30;69.90;;;;;;5011912;28;20026;-66
2021/09/28 11:51:27;;;;;;;7.03;2.88;;;21.30;69.90;;;;;;5011765;28;20026;-66
2021/09/28 11:53:56;;;;;;;7.60;3.13;;;21.20;70.00;;;;;;5012141;28;20092;-66
2021/09/28 11:56:25;;;;;;;5.78;2.72;;;21.30;69.80;;;;;;4993892;28;20057;-67
2021/09/28 11:58:52;;;;;;;8.90;3.10;;;21.30;69.80;;;;;;5018889;28;20025;-65
2021/09/28 12:01:19;;;;;;;7.70;3.00;;;21.30;69.20;;;;;;5031209;28;20079;-66
2021/09/28 12:07:11;;;;;;;7.70;2.72;;;21.30;69.80;;;;;;5029500;28;20037;-68
2021/09/28 12:09:36;;;;;;;6.90;2.72;;;21.30;69.80;;;;;;5017533;28;20114;-67
2021/09/28 12:12:18;;;;;;;5.75;2.60;;;21.40;69.70;;;;;;5017416;28;20083;-67
2021/09/28 12:14:46;;;;;;;9.95;2.95;;;21.40;70.20;;;;;;5035090;28;20029;-66
2021/09/28 12:17:17;;;;;;;6.25;2.28;;;21.40;69.80;;;;;;5017129;28;20034;-66
2021/09/28 12:19:48;;;;;;;7.70;2.50;;;21.40;69.50;;;;;;5017233;28;20102;-68
2021/09/28 12:22:37;;;;;;;7.95;2.75;;;21.40;69.70;;;;;;5017355;28;20033;-67
2021/09/28 12:25:37;;;;;;;5.03;2.45;;;21.40;69.70;;;;;;5035074;28;20026;-67
2021/09/28 12:28:14;;;;;;;8.32;2.65;;;21.40;69.90;;;;;;5034705;28;20021;-67
2021/09/28 12:30:55;;;;;;;6.68;2.78;;;21.40;69.30;;;;;;5034992;28;20026;-68
2021/09/28 12:33:21;;;;;;;7.43;2.60;;;21.40;69.40;;;;;;5017196;28;20064;-67
2021/09/28 12:35:52;;;;;;;7.00;2.38;;;21.40;69.30;;;;;;5017036;28;20032;-65
2021/09/28 12:38:17;;;;;;;8.30;2.33;;;21.40;69.70;;;;;;5016812;28;20022;-66
2021/09/28 12:40:43;;;;;;;8.43;2.80;;;21.40;70.00;;;;;;5034725;28;20036;-66
2021/09/28 12:43:10;;;;;;;6.28;2.55;;;21.40;69.90;;;;;;5034729;28;20018;-68
2021/09/28 12:45:56;;;;;;;7.20;2.90;;;21.40;70.20;;;;;;5034095;28;20025;-69
2021/09/28 12:48:44;;;;;;;5.47;2.22;;;21.40;70.30;;;;;;5029722;28;20356;-68
2021/09/28 12:51:16;;;;;;;8.00;2.40;;;21.40;70.40;;;;;;5016074;28;20021;-67
2021/09/28 12:53:42;;;;;;;6.45;2.38;;;21.50;70.00;;;;;;5034212;28;20025;-67